Latest Weather Observations for Yeppoon

IDQ60801

Issued at 4:03 pm EST Sunday 26 June 2016 (issued every 30 minutes, with the page automatically refreshed every 10 minutes)

About weather observations | Map of weather stations | Latest weather observations for QLD | Other Formats
Station Details ID: 033294 Name: YEPPOON THE ESPLANADE Lat: -23.14 Lon: 150.75 Height: 5.5 m
Data from the previous 72 hours. | See also: Recent months at Yeppoon
Date/Time
EST
Temp
°C
App
Temp
°C
Dew
Point
°C
Rel
Hum
%
Delta-T
°C
Wind Press
QNH
hPa
Press
MSL
hPa
Rain since
9am
mm
Dir  Spd
km/h
Gust
km/h
Spd
kts
Gust
kts
26/04:00pm 18.6 16.5 12.5 67 3.4 E 15 19 8 10 1016.4 1016.4 0.0
26/03:30pm 18.5 16.7 12.0 66 3.6 ESE 13 19 7 10 1016.6 1016.6 0.0
26/03:00pm 18.6 17.0 11.5 63 3.9 ESE 11 19 6 10 1016.8 1016.8 0.0
26/02:30pm 18.5 16.4 11.1 62 4.0 ESE 13 19 7 10 1017.1 1017.1 0.0
26/02:00pm 18.7 16.5 10.9 60 4.2 E 13 19 7 10 1017.3 1017.3 0.0
26/01:30pm 18.5 16.2 10.5 59 4.3 E 13 19 7 10 1017.6 1017.6 0.0
26/01:00pm 18.1 15.5 9.5 57 4.5 ESE 13 19 7 10 1018.0 1018.0 0.0
26/12:30pm 18.2 15.6 9.2 55 4.7 E 13 19 7 10 1018.6 1018.6 0.0
26/12:00pm 17.9 15.1 8.6 54 4.8 ESE 13 20 7 11 1019.2 1019.2 0.0
26/11:30am 17.7 14.8 8.1 53 4.9 ESE 13 19 7 10 1019.6 1019.6 0.0
26/11:00am 17.6 14.3 7.9 53 4.9 SE 15 22 8 12 1019.9 1019.9 0.0
26/10:30am 17.2 13.9 6.6 49 5.2 SE 13 20 7 11 1020.3 1020.3 0.0
26/10:00am 16.5 12.8 6.5 51 4.9 SE 15 20 8 11 1020.6 1020.6 0.0
26/09:30am 15.4 12.3 5.5 51 4.7 S 11 15 6 8 1020.6 1020.6 0.0
26/09:00am 14.4 11.3 5.5 55 4.2 S 11 20 6 11 1020.5 1020.5 0.0
26/08:30am 12.9 9.1 4.0 54 4.0 S 13 15 7 8 1020.4 1020.4 0.0
26/08:00am 11.7 8.5 3.0 55 3.8 SSW 9 13 5 7 1020.2 1020.2 0.0
26/07:30am 10.7 7.4 2.2 55 3.6 SW 9 13 5 7 1020.0 1020.0 0.0
26/07:00am 9.6 6.4 2.8 62 2.9 SW 9 13 5 7 1019.6 1019.6 0.0
26/06:30am 9.4 6.2 2.8 63 2.8 WSW 9 13 5 7 1019.7 1019.7 0.0
26/06:00am 9.1 5.2 3.5 68 2.4 WSW 13 15 7 8 1019.5 1019.5 0.0
26/05:30am 8.8 5.4 4.2 73 2.0 WSW 11 15 6 8 1019.3 1019.3 0.0
26/05:00am 9.2 6.3 4.4 72 2.1 WSW 9 11 5 6 1018.9 1018.9 0.0
26/04:30am 9.1 6.3 5.3 77 1.7 WSW 9 13 5 7 1018.6 1018.6 0.0
26/04:00am 9.4 5.8 5.2 75 1.9 W 13 17 7 9 1018.5 1018.5 0.0
26/03:30am 9.4 6.4 5.9 79 1.6 WSW 11 15 6 8 1018.3 1018.3 0.0
26/03:00am 8.2 4.9 6.2 87 0.9 W 13 19 7 10 1018.4 1018.4 0.0
26/02:30am 8.4 4.7 6.4 87 0.9 W 15 19 8 10 1018.4 1018.4 0.0
26/02:00am 9.3 6.4 6.3 81 1.4 SW 11 15 6 8 1018.1 1018.1 0.0
26/01:30am 9.1 5.8 6.5 84 1.2 W 13 15 7 8 1018.2 1018.2 0.0
26/01:00am 8.9 5.7 7.0 88 0.9 W 13 17 7 9 1018.5 1018.5 0.0
26/12:30am 9.4 6.6 7.1 85 1.1 W 11 15 6 8 1018.6 1018.6 0.0
26/12:00am 9.6 6.1 7.3 85 1.1 W 15 19 8 10 1019.1 1019.1 0.0
 
Date/Time
EST
Temp
°C
App
Temp
°C
Dew
Point
°C
Rel
Hum
%
Delta-T
°C
Wind Press
QNH
hPa
Press
MSL
hPa
Rain since
9am
mm
Dir  Spd
km/h
Gust
km/h
Spd
kts
Gust
kts
25/11:30pm 9.6 6.6 7.7 88 0.9 WSW 13 15 7 8 1019.5 1019.5 0.0
25/11:00pm 10.1 7.9 7.8 86 1.1 WSW 9 13 5 7 1019.7 1019.7 0.0
25/10:30pm 10.0 7.5 8.1 88 0.9 WSW 11 15 6 8 1019.7 1019.7 0.0
25/10:00pm 10.3 7.4 8.2 87 1.0 WSW 13 15 7 8 1019.6 1019.6 0.0
25/09:30pm 10.3 7.4 8.2 87 1.0 W 13 17 7 9 1019.3 1019.3 0.0
25/09:00pm 10.9 8.8 8.4 84 1.2 WSW 9 13 5 7 1019.1 1019.1 0.0
25/08:30pm 11.4 9.8 8.6 83 1.4 WSW 7 11 4 6 1019.0 1019.0 0.0
25/08:00pm 11.5 8.7 8.4 81 1.5 W 13 15 7 8 1019.3 1019.3 0.0
25/07:30pm 12.2 10.2 8.6 78 1.8 WSW 9 13 5 7 1019.1 1019.1 0.0
25/07:00pm 13.1 11.0 8.3 72 2.4 WSW 9 13 5 7 1018.6 1018.6 0.0
25/06:30pm 13.3 11.3 8.7 73 2.3 W 9 13 5 7 1018.2 1018.2 0.0
25/06:00pm 14.7 13.2 9.0 68 2.9 W 7 9 4 5 1018.0 1018.0 0.0
25/05:30pm 16.9 14.8 6.8 51 5.0 N 7 9 4 5 1017.9 1017.9 0.0
25/05:00pm 17.8 15.4 7.0 49 5.4 N 9 13 5 7 1017.9 1017.9 0.0
25/04:30pm 18.3 15.7 6.1 44 6.0 N 9 9 5 5 1017.6 1017.6 0.0
25/04:00pm 18.4 16.2 6.0 44 6.1 NE 7 9 4 5 1017.1 1017.1 0.0
25/03:30pm 18.6 15.7 6.3 44 6.1 NNE 11 13 6 7 1016.9 1016.9 0.0
25/03:00pm 18.7 16.3 6.9 46 5.9 NNE 9 13 5 7 1016.7 1016.7 0.0
25/02:30pm 18.6 14.5 6.0 43 6.2 ENE 17 19 9 10 1016.9 1016.9 0.0
25/02:00pm 18.4 13.9 6.2 45 6.0 E 19 24 10 13 1017.2 1017.2 0.0
25/01:30pm 19.1 15.1 5.1 39 6.8 ESE 15 22 8 12 1017.7 1017.7 0.0
25/01:00pm 20.0 17.4 4.4 35 7.5 ENE 7 13 4 7 1017.9 1017.9 0.0
25/12:30pm 19.2 15.5 2.1 32 7.8 SSW 11 13 6 7 1018.4 1018.4 0.0
25/12:00pm 18.9 15.7 3.2 35 7.3 SSW 9 20 5 11 1018.9 1018.9 0.0
25/11:30am 18.4 14.6 1.7 32 7.5 SSW 11 22 6 12 1019.5 1019.5 0.0
25/11:00am 18.0 14.5 3.3 37 6.8 S 11 17 6 9 1019.9 1019.9 0.0
25/10:30am 17.0 12.5 2.0 36 6.7 S 15 24 8 13 1020.3 1020.3 0.0
25/10:00am 16.3 11.6 1.2 36 6.6 S 15 24 8 13 1020.4 1020.4 0.0
25/09:30am 15.7 11.6 2.2 40 6.0 S 13 20 7 11 1020.6 1020.6 0.0
25/09:00am 15.2 9.7 1.7 40 5.9 SSW 20 30 11 16 1020.4 1020.4 0.0
25/08:30am 15.0 10.3 3.0 44 5.4 SSW 17 32 9 17 1020.0 1020.0 0.0
25/08:00am 14.4 10.1 3.3 47 5.0 SSW 15 20 8 11 1019.9 1019.9 0.0
25/07:30am 13.9 10.6 4.8 54 4.2 SSW 11 19 6 10 1019.5 1019.5 0.0
25/07:00am 13.6 10.4 5.2 57 3.9 SW 11 17 6 9 1019.3 1019.3 0.0
25/06:30am 13.7 10.6 5.6 58 3.8 SSW 11 19 6 10 1019.0 1019.0 0.0
25/06:00am 14.1 11.0 5.6 56 4.0 SW 11 19 6 10 1018.7 1018.7 0.0
25/05:30am 14.7 10.7 5.1 52 4.5 SW 15 28 8 15 1018.2 1018.2 0.0
25/05:00am 14.9 11.4 5.4 53 4.5 SW 13 19 7 10 1017.8 1017.8 0.0
25/04:30am 15.4 11.1 5.3 51 4.8 SSW 17 26 9 14 1017.4 1017.4 0.0
25/04:00am 15.9 12.0 5.4 49 5.0 SSW 15 22 8 12 1017.2 1017.2 0.0
25/03:30am 16.4 12.1 5.3 47 5.3 SW 17 24 9 13 1017.0 1017.0 0.0
25/03:00am 16.7 12.7 6.8 52 4.9 SSW 17 28 9 15 1016.7 1016.7 0.0
25/02:30am 17.3 13.4 7.3 52 5.0 SSW 17 28 9 15 1016.5 1016.5 0.0
25/02:00am 17.8 13.9 8.7 55 4.7 SSW 19 28 10 15 1016.5 1016.5 0.0
25/01:30am 18.2 15.8 11.4 64 3.7 SSW 15 22 8 12 1016.4 1016.4 0.0
25/01:00am 17.5 16.6 13.6 78 2.2 SSW 11 15 6 8 1016.5 1016.5 0.0
25/12:30am 17.2 16.7 14.8 86 1.4 SSW 11 22 6 12 1016.4 1016.4 0.0
25/12:00am 17.1 16.4 15.4 90 1.0 WSW 13 17 7 9 1015.8 1015.8 0.0
 
Date/Time
EST
Temp
°C
App
Temp
°C
Dew
Point
°C
Rel
Hum
%
Delta-T
°C
Wind Press
QNH
hPa
Press
MSL
hPa
Rain since
9am
mm
Dir  Spd
km/h
Gust
km/h
Spd
kts
Gust
kts
24/11:30pm 16.9 16.8 15.0 88 1.1 W 9 13 5 7 1015.8 1015.8 0.0
24/11:00pm 16.8 16.4 15.1 90 1.0 W 11 13 6 7 1015.7 1015.7 0.0
24/10:30pm 17.1 16.8 15.4 90 1.0 W 11 15 6 8 1015.8 1015.8 0.0
24/10:00pm 17.5 17.3 15.6 89 1.1 W 11 13 6 7 1015.8 1015.8 0.0
24/09:30pm 18.2 20.1 15.8 86 1.4 CALM 0 7 0 4 1015.9 1015.9 0.0
24/09:00pm 18.8 19.1 15.9 83 1.7 W 9 13 5 7 1015.7 1015.7 0.0
24/08:30pm 19.7 19.9 15.8 78 2.3 W 9 11 5 6 1015.5 1015.5 0.0
24/08:00pm 20.6 21.6 16.3 76 2.6 WSW 6 9 3 5 1015.2 1015.2 0.0
24/07:30pm 21.3 22.8 16.7 75 2.8 SW 4 7 2 4 1014.9 1014.9 0.0
24/07:00pm 21.6 21.9 16.1 71 3.3 W 9 9 5 5 1014.6 1014.6 0.0
24/06:30pm 22.1 23.2 16.7 71 3.3 W 6 9 3 5 1014.1 1014.1 0.0
24/06:00pm 22.9 23.5 15.9 64 4.2 W 7 9 4 5 1013.7 1013.7 0.0
24/05:30pm 23.8 24.3 15.1 58 5.2 SW 6 7 3 4 1013.2 1013.2 0.0
24/05:00pm 24.5 25.0 15.0 55 5.7 SW 6 9 3 5 1013.0 1013.0 0.0
24/04:30pm 25.1 24.4 14.3 51 6.4 SSW 11 17 6 9 1012.9 1012.9 0.0
24/04:00pm 25.6 23.5 13.7 47 7.0 SW 17 24 9 13 1012.4 1012.4 0.0
24/03:30pm 26.2 24.3 14.3 48 7.1 SW 17 26 9 14 1011.9 1011.9 0.0
24/03:00pm 26.7 24.5 13.3 43 7.9 SW 17 28 9 15 1011.8 1011.8 0.0
24/02:30pm 27.3 24.1 13.2 41 8.3 SW 22 32 12 17 1011.8 1011.8 0.0
24/02:00pm 26.7 26.0 16.5 53 6.3 SW 15 26 8 14 1011.9 1011.9 0.0
24/01:30pm 27.2 26.7 17.9 56 5.9 SW 17 26 9 14 1011.8 1011.8 0.0
24/01:00pm 28.0 27.8 18.6 56 6.0 W 17 28 9 15 1012.1 1012.1 0.0
24/12:30pm 26.3 27.0 18.8 63 4.8 WSW 13 24 7 13 1012.6 1012.6 0.0
24/12:00pm 26.7 26.3 18.9 62 5.0 WSW 19 30 10 16 1013.2 1013.2 0.0
24/11:30am 25.6 26.3 19.7 70 3.8 W 15 20 8 11 1013.8 1013.8 0.0
24/11:00am 25.6 26.4 19.9 70 3.7 W 15 20 8 11 1014.4 1014.4 0.0
24/10:30am 25.3 25.6 19.6 70 3.7 W 17 26 9 14 1014.6 1014.6 0.0
24/10:00am 24.7 25.9 19.9 74 3.1 W 13 20 7 11 1014.7 1014.7 0.0
24/09:30am 23.7 24.3 19.5 77 2.7 W 15 22 8 12 1015.0 1015.0 0.0
24/09:00am 23.3 25.4 19.4 79 2.5 WNW 7 13 4 7 1015.1 1015.1 0.2
24/08:30am 21.2 24.1 18.1 82 1.9 CALM 0 6 0 3 1014.9 1014.9 0.2
24/08:00am 19.5 20.6 17.0 85 1.5 W 7 7 4 4 1014.5 1014.5 0.2
24/07:30am 19.0 20.1 16.7 86 1.4 WSW 6 11 3 6 1014.4 1014.4 0.2
24/07:00am 18.2 19.1 16.5 90 1.0 W 7 11 4 6 1014.2 1014.2 0.2
24/06:30am 18.1 19.1 16.4 90 1.0 W 6 7 3 4 1013.8 1013.8 0.2
24/06:00am 18.5 19.4 16.7 89 1.1 WSW 7 9 4 5 1013.7 1013.7 0.2
24/05:30am 18.2 19.0 16.4 89 1.1 WNW 7 9 4 5 1013.5 1013.5 0.2
24/05:00am 18.0 19.0 16.3 90 1.0 WSW 6 9 3 5 1013.3 1013.3 0.2
24/04:30am 17.7 18.1 16.2 91 0.9 W 9 11 5 6 1013.3 1013.3 0.2
24/04:00am 18.0 19.3 16.1 89 1.1 WNW 4 6 2 3 1013.1 1013.1 0.2
24/03:30am 18.2 19.1 16.0 87 1.3 W 6 7 3 4 1013.0 1013.0 0.2
24/03:00am 18.3 19.0 16.1 87 1.3 W 7 11 4 6 1013.1 1013.1 0.2
24/02:30am 18.0 18.3 16.0 88 1.2 W 9 11 5 6 1013.5 1013.5 0.2
24/02:00am 17.8 18.0 15.8 88 1.2 W 9 11 5 6 1013.7 1013.7 0.2
24/01:30am 18.5 19.1 15.8 84 1.6 W 7 9 4 5 1013.7 1013.7 0.2
24/01:00am 19.7 20.5 15.8 78 2.3 W 6 9 3 5 1013.6 1013.6 0.2
24/12:30am 20.8 21.3 15.6 72 3.1 NW 7 11 4 6 1013.6 1013.6 0.2
24/12:00am 20.7 21.3 15.8 73 2.9 NNW 7 11 4 6 1013.8 1013.8 0.2
 
Date/Time
EST
Temp
°C
App
Temp
°C
Dew
Point
°C
Rel
Hum
%
Delta-T
°C
Wind Press
QNH
hPa
Press
MSL
hPa
Rain since
9am
mm
Dir  Spd
km/h
Gust
km/h
Spd
kts
Gust
kts
23/11:30pm 20.0 20.7 16.2 79 2.3 WNW 7 9 4 5 1014.4 1014.4 0.2
23/11:00pm 21.1 21.3 15.7 71 3.2 NW 9 17 5 9 1014.5 1014.5 0.2
23/10:30pm 21.1 20.6 15.9 72 3.1 NNW 13 19 7 10 1014.2 1014.2 0.2
23/10:00pm 20.7 20.4 16.4 76 2.6 N 13 20 7 11 1014.2 1014.2 0.2
23/09:30pm 20.8 19.9 16.9 78 2.4 N 17 22 9 12 1014.0 1014.0 0.2
23/09:00pm 20.8 18.7 17.2 80 2.2 N 24 28 13 15 1013.9 1013.9 0.2
23/08:30pm 21.1 21.1 17.2 78 2.4 N 13 15 7 8 1014.4 1014.4 0.2
23/08:00pm 20.1 23.0 18.3 89 1.1 CALM 0 0 0 0 1014.6 1014.6 0.2
23/07:30pm 20.3 23.3 18.5 89 1.1 CALM 0 2 0 1 1014.4 1014.4 0.2
23/07:00pm 20.5 23.5 18.4 88 1.3 CALM 0 0 0 0 1013.9 1013.9 0.2
23/06:30pm 21.1 22.5 18.7 86 1.5 NNE 9 11 5 6 1013.3 1013.3 0.2
23/06:00pm 21.2 22.4 19.0 87 1.4 ENE 11 13 6 7 1012.9 1012.9 0.2
23/05:30pm 21.3 23.7 19.6 90 1.1 NNE 6 9 3 5 1012.7 1012.7 0.2
23/05:00pm 21.4 23.2 19.5 89 1.2 NNE 9 11 5 6 1012.2 1012.2 0.2
23/04:30pm 21.4 22.7 19.2 87 1.4 NE 11 11 6 6 1012.4 1012.4 0.2

Other Formats:

Comma delimited format used in spreadsheet applications
http://www.bom.gov.au/fwo/IDQ60801/IDQ60801.94373.axf

JavaScript Object Notation format (JSON) in row-major order
http://www.bom.gov.au/fwo/IDQ60801/IDQ60801.94373.json